sensor_id;sensor_type;location;lat;lon;timestamp;P1;durP1;ratioP1;P2;durP2;ratioP2
25299;SDS011;13241;51.208;4.432;2022-07-24T00:00:31;25.08;;;10.75;;
25299;SDS011;13241;51.208;4.432;2022-07-24T00:02:58;27.17;;;11.57;;
25299;SDS011;13241;51.208;4.432;2022-07-24T00:05:25;22.75;;;11.10;;
25299;SDS011;13241;51.208;4.432;2022-07-24T00:07:52;19.73;;;10.48;;
25299;SDS011;13241;51.208;4.432;2022-07-24T00:10:19;21.15;;;11.15;;
25299;SDS011;13241;51.208;4.432;2022-07-24T00:12:46;28.55;;;11.52;;
25299;SDS011;13241;51.208;4.432;2022-07-24T00:15:13;28.20;;;12.18;;
25299;SDS011;13241;51.208;4.432;2022-07-24T00:17:40;30.15;;;12.57;;
25299;SDS011;13241;51.208;4.432;2022-07-24T00:20:08;31.17;;;13.48;;
25299;SDS011;13241;51.208;4.432;2022-07-24T00:22:35;31.75;;;13.63;;
25299;SDS011;13241;51.208;4.432;2022-07-24T00:25:03;37.15;;;13.63;;
25299;SDS011;13241;51.208;4.432;2022-07-24T00:27:30;24.25;;;11.73;;
25299;SDS011;13241;51.208;4.432;2022-07-24T00:29:57;27.23;;;12.45;;
25299;SDS011;13241;51.208;4.432;2022-07-24T00:32:23;28.23;;;12.50;;
25299;SDS011;13241;51.208;4.432;2022-07-24T00:34:50;28.65;;;12.15;;
25299;SDS011;13241;51.208;4.432;2022-07-24T00:37:18;30.10;;;11.80;;
25299;SDS011;13241;51.208;4.432;2022-07-24T00:39:45;28.65;;;13.25;;
25299;SDS011;13241;51.208;4.432;2022-07-24T00:42:13;28.52;;;12.73;;
25299;SDS011;13241;51.208;4.432;2022-07-24T00:44:41;27.33;;;11.85;;
25299;SDS011;13241;51.208;4.432;2022-07-24T00:47:07;28.15;;;12.18;;
25299;SDS011;13241;51.208;4.432;2022-07-24T00:49:34;22.67;;;12.07;;
25299;SDS011;13241;51.208;4.432;2022-07-24T00:52:01;25.48;;;11.68;;
25299;SDS011;13241;51.208;4.432;2022-07-24T00:54:28;26.92;;;12.13;;
25299;SDS011;13241;51.208;4.432;2022-07-24T00:56:56;29.95;;;13.93;;
25299;SDS011;13241;51.208;4.432;2022-07-24T00:59:23;31.40;;;13.75;;
25299;SDS011;13241;51.208;4.432;2022-07-24T01:01:50;31.13;;;13.10;;
25299;SDS011;13241;51.208;4.432;2022-07-24T01:04:17;32.60;;;13.25;;
25299;SDS011;13241;51.208;4.432;2022-07-24T01:06:46;28.95;;;13.27;;
25299;SDS011;13241;51.208;4.432;2022-07-24T01:09:14;29.17;;;14.10;;
25299;SDS011;13241;51.208;4.432;2022-07-24T01:11:41;36.17;;;14.35;;
25299;SDS011;13241;51.208;4.432;2022-07-24T01:14:09;27.70;;;12.93;;
25299;SDS011;13241;51.208;4.432;2022-07-24T01:16:37;26.10;;;12.00;;
25299;SDS011;13241;51.208;4.432;2022-07-24T01:19:04;23.05;;;13.07;;
25299;SDS011;13241;51.208;4.432;2022-07-24T01:21:32;29.60;;;12.18;;
25299;SDS011;13241;51.208;4.432;2022-07-24T01:23:59;24.98;;;10.98;;
25299;SDS011;13241;51.208;4.432;2022-07-24T01:26:26;31.08;;;12.45;;
25299;SDS011;13241;51.208;4.432;2022-07-24T01:28:53;22.77;;;11.05;;
25299;SDS011;13241;51.208;4.432;2022-07-24T01:31:20;29.77;;;13.32;;
25299;SDS011;13241;51.208;4.432;2022-07-24T01:33:46;31.08;;;12.18;;
25299;SDS011;13241;51.208;4.432;2022-07-24T01:36:14;26.88;;;11.02;;
25299;SDS011;13241;51.208;4.432;2022-07-24T01:38:41;27.75;;;11.80;;
25299;SDS011;13241;51.208;4.432;2022-07-24T01:41:08;23.35;;;11.52;;
25299;SDS011;13241;51.208;4.432;2022-07-24T01:43:35;24.30;;;11.18;;
25299;SDS011;13241;51.208;4.432;2022-07-24T01:46:02;32.25;;;12.82;;
25299;SDS011;13241;51.208;4.432;2022-07-24T01:48:29;19.65;;;9.80;;
25299;SDS011;13241;51.208;4.432;2022-07-24T01:50:57;23.73;;;11.98;;
25299;SDS011;13241;51.208;4.432;2022-07-24T01:53:24;28.08;;;11.13;;
25299;SDS011;13241;51.208;4.432;2022-07-24T01:55:51;29.23;;;10.07;;
25299;SDS011;13241;51.208;4.432;2022-07-24T01:58:19;17.95;;;9.85;;
25299;SDS011;13241;51.208;4.432;2022-07-24T02:00:48;19.20;;;9.95;;
25299;SDS011;13241;51.208;4.432;2022-07-24T02:03:16;19.88;;;10.48;;
25299;SDS011;13241;51.208;4.432;2022-07-24T02:05:45;19.55;;;10.38;;
25299;SDS011;13241;51.208;4.432;2022-07-24T02:08:12;18.95;;;10.13;;
25299;SDS011;13241;51.208;4.432;2022-07-24T02:10:39;21.30;;;10.20;;
25299;SDS011;13241;51.208;4.432;2022-07-24T02:13:06;20.13;;;10.77;;
25299;SDS011;13241;51.208;4.432;2022-07-24T02:15:33;18.88;;;8.75;;
25299;SDS011;13241;51.208;4.432;2022-07-24T02:18:01;19.27;;;8.90;;
25299;SDS011;13241;51.208;4.432;2022-07-24T02:20:29;20.80;;;9.90;;
25299;SDS011;13241;51.208;4.432;2022-07-24T02:22:56;21.73;;;9.18;;
25299;SDS011;13241;51.208;4.432;2022-07-24T02:25:23;20.33;;;9.32;;
25299;SDS011;13241;51.208;4.432;2022-07-24T02:27:50;22.42;;;9.75;;
25299;SDS011;13241;51.208;4.432;2022-07-24T02:30:18;21.88;;;9.95;;
25299;SDS011;13241;51.208;4.432;2022-07-24T02:32:47;18.00;;;8.80;;
25299;SDS011;13241;51.208;4.432;2022-07-24T02:35:14;15.80;;;8.38;;
25299;SDS011;13241;51.208;4.432;2022-07-24T02:37:42;17.58;;;8.68;;
25299;SDS011;13241;51.208;4.432;2022-07-24T02:40:10;14.52;;;8.38;;
25299;SDS011;13241;51.208;4.432;2022-07-24T02:42:38;19.05;;;8.70;;
25299;SDS011;13241;51.208;4.432;2022-07-24T02:45:06;18.55;;;8.73;;
25299;SDS011;13241;51.208;4.432;2022-07-24T02:47:34;21.65;;;8.13;;
25299;SDS011;13241;51.208;4.432;2022-07-24T02:50:02;15.98;;;7.88;;
25299;SDS011;13241;51.208;4.432;2022-07-24T02:52:30;16.08;;;6.95;;
25299;SDS011;13241;51.208;4.432;2022-07-24T02:54:56;16.30;;;8.25;;
25299;SDS011;13241;51.208;4.432;2022-07-24T02:57:23;13.05;;;7.80;;
25299;SDS011;13241;51.208;4.432;2022-07-24T02:59:50;18.83;;;8.55;;
25299;SDS011;13241;51.208;4.432;2022-07-24T03:02:19;19.83;;;8.43;;
25299;SDS011;13241;51.208;4.432;2022-07-24T03:04:46;16.58;;;8.70;;
25299;SDS011;13241;51.208;4.432;2022-07-24T03:07:13;19.08;;;9.10;;
25299;SDS011;13241;51.208;4.432;2022-07-24T03:09:41;17.23;;;8.85;;
25299;SDS011;13241;51.208;4.432;2022-07-24T03:12:08;12.93;;;8.30;;
25299;SDS011;13241;51.208;4.432;2022-07-24T03:14:35;16.73;;;9.40;;
25299;SDS011;13241;51.208;4.432;2022-07-24T03:17:04;17.45;;;9.18;;
25299;SDS011;13241;51.208;4.432;2022-07-24T03:19:31;22.42;;;9.95;;
25299;SDS011;13241;51.208;4.432;2022-07-24T03:21:58;17.15;;;8.50;;
25299;SDS011;13241;51.208;4.432;2022-07-24T03:24:25;15.32;;;8.63;;
25299;SDS011;13241;51.208;4.432;2022-07-24T03:26:52;19.95;;;9.98;;
25299;SDS011;13241;51.208;4.432;2022-07-24T03:29:18;19.13;;;9.50;;
25299;SDS011;13241;51.208;4.432;2022-07-24T03:31:45;22.23;;;10.05;;
25299;SDS011;13241;51.208;4.432;2022-07-24T03:34:12;16.30;;;9.38;;
25299;SDS011;13241;51.208;4.432;2022-07-24T03:36:40;16.88;;;8.82;;
25299;SDS011;13241;51.208;4.432;2022-07-24T03:39:07;22.10;;;9.30;;
25299;SDS011;13241;51.208;4.432;2022-07-24T03:41:34;16.00;;;8.65;;
25299;SDS011;13241;51.208;4.432;2022-07-24T03:44:01;19.92;;;9.18;;
25299;SDS011;13241;51.208;4.432;2022-07-24T03:46:29;17.05;;;8.55;;
25299;SDS011;13241;51.208;4.432;2022-07-24T03:48:56;22.48;;;8.93;;
25299;SDS011;13241;51.208;4.432;2022-07-24T03:51:25;17.27;;;9.05;;
25299;SDS011;13241;51.208;4.432;2022-07-24T03:53:52;20.00;;;9.30;;
25299;SDS011;13241;51.208;4.432;2022-07-24T03:56:20;15.45;;;8.27;;
25299;SDS011;13241;51.208;4.432;2022-07-24T03:58:52;19.35;;;9.07;;
25299;SDS011;13241;51.208;4.432;2022-07-24T04:01:20;19.08;;;8.75;;
25299;SDS011;13241;51.208;4.432;2022-07-24T04:03:48;21.30;;;8.95;;
25299;SDS011;13241;51.208;4.432;2022-07-24T04:06:15;18.73;;;7.93;;
25299;SDS011;13241;51.208;4.432;2022-07-24T04:08:42;22.52;;;9.20;;
25299;SDS011;13241;51.208;4.432;2022-07-24T04:11:09;21.33;;;9.32;;
25299;SDS011;13241;51.208;4.432;2022-07-24T04:13:36;13.27;;;7.35;;
25299;SDS011;13241;51.208;4.432;2022-07-24T04:16:09;19.00;;;7.28;;
25299;SDS011;13241;51.208;4.432;2022-07-24T04:18:36;18.38;;;8.45;;
25299;SDS011;13241;51.208;4.432;2022-07-24T04:21:02;15.88;;;8.88;;
25299;SDS011;13241;51.208;4.432;2022-07-24T04:23:29;16.20;;;8.10;;
25299;SDS011;13241;51.208;4.432;2022-07-24T04:25:56;14.13;;;7.75;;
25299;SDS011;13241;51.208;4.432;2022-07-24T04:28:23;13.95;;;7.88;;
25299;SDS011;13241;51.208;4.432;2022-07-24T04:30:50;14.95;;;7.93;;
25299;SDS011;13241;51.208;4.432;2022-07-24T04:33:17;20.60;;;7.68;;
25299;SDS011;13241;51.208;4.432;2022-07-24T04:35:44;14.60;;;7.32;;
25299;SDS011;13241;51.208;4.432;2022-07-24T04:38:11;14.82;;;7.90;;
25299;SDS011;13241;51.208;4.432;2022-07-24T04:40:38;18.33;;;8.32;;
25299;SDS011;13241;51.208;4.432;2022-07-24T04:43:05;14.90;;;8.13;;
25299;SDS011;13241;51.208;4.432;2022-07-24T04:45:33;16.85;;;8.18;;
25299;SDS011;13241;51.208;4.432;2022-07-24T04:48:01;15.48;;;7.85;;
25299;SDS011;13241;51.208;4.432;2022-07-24T04:50:28;18.60;;;8.48;;
25299;SDS011;13241;51.208;4.432;2022-07-24T04:52:55;17.35;;;7.28;;
25299;SDS011;13241;51.208;4.432;2022-07-24T04:55:22;13.98;;;7.60;;
25299;SDS011;13241;51.208;4.432;2022-07-24T04:57:49;15.82;;;8.10;;
25299;SDS011;13241;51.208;4.432;2022-07-24T05:00:16;15.25;;;7.78;;
25299;SDS011;13241;51.208;4.432;2022-07-24T05:02:43;12.82;;;6.32;;
25299;SDS011;13241;51.208;4.432;2022-07-24T05:05:10;11.13;;;6.45;;
25299;SDS011;13241;51.208;4.432;2022-07-24T05:07:37;13.63;;;7.03;;
25299;SDS011;13241;51.208;4.432;2022-07-24T05:10:05;14.57;;;6.25;;
25299;SDS011;13241;51.208;4.432;2022-07-24T05:12:32;19.98;;;6.25;;
25299;SDS011;13241;51.208;4.432;2022-07-24T05:14:58;14.88;;;7.13;;
25299;SDS011;13241;51.208;4.432;2022-07-24T05:17:25;15.68;;;6.55;;
25299;SDS011;13241;51.208;4.432;2022-07-24T05:19:52;10.75;;;6.60;;
25299;SDS011;13241;51.208;4.432;2022-07-24T05:22:19;11.30;;;5.30;;
25299;SDS011;13241;51.208;4.432;2022-07-24T05:24:46;6.97;;;4.68;;
25299;SDS011;13241;51.208;4.432;2022-07-24T05:27:13;14.57;;;5.25;;
25299;SDS011;13241;51.208;4.432;2022-07-24T05:29:40;8.13;;;4.65;;
25299;SDS011;13241;51.208;4.432;2022-07-24T05:32:07;11.02;;;4.32;;
25299;SDS011;13241;51.208;4.432;2022-07-24T05:34:35;7.97;;;4.00;;
25299;SDS011;13241;51.208;4.432;2022-07-24T05:37:06;7.05;;;3.88;;
25299;SDS011;13241;51.208;4.432;2022-07-24T05:39:33;5.55;;;3.47;;
25299;SDS011;13241;51.208;4.432;2022-07-24T05:42:00;8.27;;;4.05;;
25299;SDS011;13241;51.208;4.432;2022-07-24T05:44:27;6.40;;;3.75;;
25299;SDS011;13241;51.208;4.432;2022-07-24T05:46:54;6.82;;;3.83;;
25299;SDS011;13241;51.208;4.432;2022-07-24T05:49:21;8.15;;;3.75;;
25299;SDS011;13241;51.208;4.432;2022-07-24T05:51:48;10.05;;;3.22;;
25299;SDS011;13241;51.208;4.432;2022-07-24T05:54:15;6.63;;;3.42;;
25299;SDS011;13241;51.208;4.432;2022-07-24T05:56:42;5.63;;;3.47;;
25299;SDS011;13241;51.208;4.432;2022-07-24T05:59:09;5.93;;;2.92;;
25299;SDS011;13241;51.208;4.432;2022-07-24T06:01:36;4.72;;;3.08;;
25299;SDS011;13241;51.208;4.432;2022-07-24T06:04:03;8.98;;;3.33;;
25299;SDS011;13241;51.208;4.432;2022-07-24T06:06:30;4.95;;;3.15;;
25299;SDS011;13241;51.208;4.432;2022-07-24T06:08:56;8.23;;;3.38;;
25299;SDS011;13241;51.208;4.432;2022-07-24T06:11:23;7.45;;;3.03;;
25299;SDS011;13241;51.208;4.432;2022-07-24T06:13:51;4.70;;;2.70;;
25299;SDS011;13241;51.208;4.432;2022-07-24T06:16:18;4.00;;;2.42;;
25299;SDS011;13241;51.208;4.432;2022-07-24T06:18:46;5.40;;;2.75;;
25299;SDS011;13241;51.208;4.432;2022-07-24T06:21:12;6.53;;;2.50;;
25299;SDS011;13241;51.208;4.432;2022-07-24T06:23:39;4.65;;;2.60;;
25299;SDS011;13241;51.208;4.432;2022-07-24T06:26:06;4.82;;;2.42;;
25299;SDS011;13241;51.208;4.432;2022-07-24T06:28:33;5.45;;;2.40;;
25299;SDS011;13241;51.208;4.432;2022-07-24T06:31:00;6.57;;;1.98;;
25299;SDS011;13241;51.208;4.432;2022-07-24T06:33:28;6.38;;;2.40;;
25299;SDS011;13241;51.208;4.432;2022-07-24T06:35:55;4.28;;;2.33;;
25299;SDS011;13241;51.208;4.432;2022-07-24T06:38:22;2.45;;;1.52;;
25299;SDS011;13241;51.208;4.432;2022-07-24T06:40:51;3.20;;;2.05;;
25299;SDS011;13241;51.208;4.432;2022-07-24T06:43:18;2.97;;;1.70;;
25299;SDS011;13241;51.208;4.432;2022-07-24T06:45:46;2.92;;;1.50;;
25299;SDS011;13241;51.208;4.432;2022-07-24T06:48:13;2.33;;;1.38;;
25299;SDS011;13241;51.208;4.432;2022-07-24T06:50:40;2.45;;;1.45;;
25299;SDS011;13241;51.208;4.432;2022-07-24T06:53:07;6.88;;;1.70;;
25299;SDS011;13241;51.208;4.432;2022-07-24T06:55:33;3.35;;;1.40;;
25299;SDS011;13241;51.208;4.432;2022-07-24T06:58:00;2.72;;;1.27;;
25299;SDS011;13241;51.208;4.432;2022-07-24T07:00:27;3.67;;;1.55;;
25299;SDS011;13241;51.208;4.432;2022-07-24T07:02:54;1.50;;;1.38;;
25299;SDS011;13241;51.208;4.432;2022-07-24T07:05:21;1.05;;;0.98;;
25299;SDS011;13241;51.208;4.432;2022-07-24T07:07:50;1.42;;;1.10;;
25299;SDS011;13241;51.208;4.432;2022-07-24T07:10:16;2.63;;;1.00;;
25299;SDS011;13241;51.208;4.432;2022-07-24T07:12:43;1.33;;;1.23;;
25299;SDS011;13241;51.208;4.432;2022-07-24T07:15:10;3.80;;;1.55;;
25299;SDS011;13241;51.208;4.432;2022-07-24T07:17:38;1.75;;;1.42;;
25299;SDS011;13241;51.208;4.432;2022-07-24T07:20:07;1.52;;;1.10;;
25299;SDS011;13241;51.208;4.432;2022-07-24T07:22:35;7.95;;;2.70;;
25299;SDS011;13241;51.208;4.432;2022-07-24T07:25:03;1.67;;;1.20;;
25299;SDS011;13241;51.208;4.432;2022-07-24T07:27:30;4.03;;;1.60;;
25299;SDS011;13241;51.208;4.432;2022-07-24T07:29:57;2.42;;;1.40;;
25299;SDS011;13241;51.208;4.432;2022-07-24T07:32:24;3.50;;;1.25;;
25299;SDS011;13241;51.208;4.432;2022-07-24T07:34:51;1.15;;;1.05;;
25299;SDS011;13241;51.208;4.432;2022-07-24T07:37:19;2.30;;;1.65;;
25299;SDS011;13241;51.208;4.432;2022-07-24T07:39:46;2.00;;;1.20;;
25299;SDS011;13241;51.208;4.432;2022-07-24T07:42:13;3.63;;;1.30;;
25299;SDS011;13241;51.208;4.432;2022-07-24T07:44:41;2.80;;;1.55;;
25299;SDS011;13241;51.208;4.432;2022-07-24T07:47:08;3.28;;;1.27;;
25299;SDS011;13241;51.208;4.432;2022-07-24T07:49:35;1.48;;;1.15;;
25299;SDS011;13241;51.208;4.432;2022-07-24T07:52:02;2.10;;;1.20;;
25299;SDS011;13241;51.208;4.432;2022-07-24T07:54:29;2.35;;;1.30;;
25299;SDS011;13241;51.208;4.432;2022-07-24T07:56:56;3.60;;;1.42;;
25299;SDS011;13241;51.208;4.432;2022-07-24T07:59:23;2.88;;;1.20;;
25299;SDS011;13241;51.208;4.432;2022-07-24T08:01:50;2.63;;;1.45;;
25299;SDS011;13241;51.208;4.432;2022-07-24T08:04:17;1.67;;;1.10;;
25299;SDS011;13241;51.208;4.432;2022-07-24T08:06:44;3.08;;;1.33;;
25299;SDS011;13241;51.208;4.432;2022-07-24T08:09:12;2.38;;;1.23;;
25299;SDS011;13241;51.208;4.432;2022-07-24T08:11:39;1.33;;;1.20;;
25299;SDS011;13241;51.208;4.432;2022-07-24T08:14:06;1.80;;;1.27;;
25299;SDS011;13241;51.208;4.432;2022-07-24T08:16:33;2.30;;;1.15;;
25299;SDS011;13241;51.208;4.432;2022-07-24T08:19:00;6.03;;;3.40;;
25299;SDS011;13241;51.208;4.432;2022-07-24T08:21:27;2.17;;;1.23;;
25299;SDS011;13241;51.208;4.432;2022-07-24T08:23:54;2.70;;;0.98;;
25299;SDS011;13241;51.208;4.432;2022-07-24T08:26:21;1.25;;;1.00;;
25299;SDS011;13241;51.208;4.432;2022-07-24T08:28:48;1.88;;;1.30;;
25299;SDS011;13241;51.208;4.432;2022-07-24T08:31:15;1.48;;;1.30;;
25299;SDS011;13241;51.208;4.432;2022-07-24T08:33:42;2.67;;;1.42;;
25299;SDS011;13241;51.208;4.432;2022-07-24T08:36:10;4.50;;;1.42;;
25299;SDS011;13241;51.208;4.432;2022-07-24T08:38:36;1.42;;;1.20;;
25299;SDS011;13241;51.208;4.432;2022-07-24T08:41:04;1.42;;;1.30;;
25299;SDS011;13241;51.208;4.432;2022-07-24T08:43:32;3.83;;;1.40;;
25299;SDS011;13241;51.208;4.432;2022-07-24T08:45:58;9.13;;;1.58;;
25299;SDS011;13241;51.208;4.432;2022-07-24T08:48:26;2.33;;;1.40;;
25299;SDS011;13241;51.208;4.432;2022-07-24T08:50:53;2.15;;;1.60;;
25299;SDS011;13241;51.208;4.432;2022-07-24T08:53:22;2.33;;;1.48;;
25299;SDS011;13241;51.208;4.432;2022-07-24T08:55:50;2.13;;;1.13;;
25299;SDS011;13241;51.208;4.432;2022-07-24T08:58:17;1.85;;;1.23;;
25299;SDS011;13241;51.208;4.432;2022-07-24T09:00:44;4.43;;;1.67;;
25299;SDS011;13241;51.208;4.432;2022-07-24T09:03:11;3.78;;;1.35;;
25299;SDS011;13241;51.208;4.432;2022-07-24T09:05:51;1.45;;;1.10;;
25299;SDS011;13241;51.208;4.432;2022-07-24T09:08:20;1.88;;;1.60;;
25299;SDS011;13241;51.208;4.432;2022-07-24T09:10:56;2.65;;;1.40;;
25299;SDS011;13241;51.208;4.432;2022-07-24T09:13:30;2.15;;;1.08;;
25299;SDS011;13241;51.208;4.432;2022-07-24T09:16:21;3.70;;;1.58;;
25299;SDS011;13241;51.208;4.432;2022-07-24T09:18:52;2.25;;;1.17;;
25299;SDS011;13241;51.208;4.432;2022-07-24T09:21:39;5.88;;;1.20;;
25299;SDS011;13241;51.208;4.432;2022-07-24T09:24:13;3.22;;;1.20;;
25299;SDS011;13241;51.208;4.432;2022-07-24T09:29:19;2.22;;;1.05;;
25299;SDS011;13241;51.208;4.432;2022-07-24T09:31:58;2.25;;;1.20;;
25299;SDS011;13241;51.208;4.432;2022-07-24T09:34:28;3.05;;;1.17;;
25299;SDS011;13241;51.208;4.432;2022-07-24T09:36:56;2.28;;;1.40;;
25299;SDS011;13241;51.208;4.432;2022-07-24T09:39:28;1.38;;;1.27;;
25299;SDS011;13241;51.208;4.432;2022-07-24T09:41:58;2.17;;;1.30;;
25299;SDS011;13241;51.208;4.432;2022-07-24T09:44:26;2.22;;;1.25;;
25299;SDS011;13241;51.208;4.432;2022-07-24T09:46:57;2.83;;;1.42;;
25299;SDS011;13241;51.208;4.432;2022-07-24T09:49:33;1.77;;;1.38;;
25299;SDS011;13241;51.208;4.432;2022-07-24T09:54:35;1.90;;;1.10;;
25299;SDS011;13241;51.208;4.432;2022-07-24T09:59:57;3.47;;;1.42;;
25299;SDS011;13241;51.208;4.432;2022-07-24T10:02:30;2.05;;;1.30;;
25299;SDS011;13241;51.208;4.432;2022-07-24T10:04:59;1.88;;;1.35;;
25299;SDS011;13241;51.208;4.432;2022-07-24T10:07:29;3.50;;;1.30;;
25299;SDS011;13241;51.208;4.432;2022-07-24T10:09:57;3.45;;;1.50;;
25299;SDS011;13241;51.208;4.432;2022-07-24T10:12:26;5.32;;;1.27;;
25299;SDS011;13241;51.208;4.432;2022-07-24T10:14:58;2.65;;;1.42;;
25299;SDS011;13241;51.208;4.432;2022-07-24T10:17:34;3.08;;;1.48;;
25299;SDS011;13241;51.208;4.432;2022-07-24T10:20:23;2.13;;;1.23;;
25299;SDS011;13241;51.208;4.432;2022-07-24T10:23:09;3.20;;;1.20;;
25299;SDS011;13241;51.208;4.432;2022-07-24T10:25:52;2.05;;;1.30;;
25299;SDS011;13241;51.208;4.432;2022-07-24T10:31:10;6.25;;;1.00;;
25299;SDS011;13241;51.208;4.432;2022-07-24T10:33:40;1.45;;;0.90;;
25299;SDS011;13241;51.208;4.432;2022-07-24T10:36:13;3.13;;;1.20;;
25299;SDS011;13241;51.208;4.432;2022-07-24T10:38:44;1.30;;;1.20;;
25299;SDS011;13241;51.208;4.432;2022-07-24T10:41:23;4.35;;;1.42;;
25299;SDS011;13241;51.208;4.432;2022-07-24T10:44:11;1.88;;;1.20;;
25299;SDS011;13241;51.208;4.432;2022-07-24T10:49:40;2.45;;;1.35;;
25299;SDS011;13241;51.208;4.432;2022-07-24T10:52:14;2.03;;;1.27;;
25299;SDS011;13241;51.208;4.432;2022-07-24T10:55:18;1.98;;;1.17;;
25299;SDS011;13241;51.208;4.432;2022-07-24T11:00:44;3.90;;;1.63;;
25299;SDS011;13241;51.208;4.432;2022-07-24T11:03:26;3.28;;;1.73;;
25299;SDS011;13241;51.208;4.432;2022-07-24T11:08:36;2.85;;;1.30;;
25299;SDS011;13241;51.208;4.432;2022-07-24T11:11:11;1.88;;;1.45;;
25299;SDS011;13241;51.208;4.432;2022-07-24T11:13:46;2.55;;;1.52;;
25299;SDS011;13241;51.208;4.432;2022-07-24T11:16:18;2.78;;;1.30;;
25299;SDS011;13241;51.208;4.432;2022-07-24T11:21:40;1.70;;;1.10;;
25299;SDS011;13241;51.208;4.432;2022-07-24T11:26:52;2.42;;;1.23;;
25299;SDS011;13241;51.208;4.432;2022-07-24T11:29:22;3.15;;;0.98;;
25299;SDS011;13241;51.208;4.432;2022-07-24T11:31:53;3.85;;;1.20;;
25299;SDS011;13241;51.208;4.432;2022-07-24T11:34:22;3.60;;;1.33;;
25299;SDS011;13241;51.208;4.432;2022-07-24T11:36:50;7.20;;;1.20;;
25299;SDS011;13241;51.208;4.432;2022-07-24T11:39:19;2.10;;;1.50;;
25299;SDS011;13241;51.208;4.432;2022-07-24T11:41:56;2.60;;;1.67;;
25299;SDS011;13241;51.208;4.432;2022-07-24T11:44:45;1.42;;;1.10;;
25299;SDS011;13241;51.208;4.432;2022-07-24T11:47:22;1.57;;;1.30;;
25299;SDS011;13241;51.208;4.432;2022-07-24T11:49:51;2.08;;;1.08;;
25299;SDS011;13241;51.208;4.432;2022-07-24T11:54:50;3.15;;;1.02;;
25299;SDS011;13241;51.208;4.432;2022-07-24T11:57:21;1.35;;;0.90;;
25299;SDS011;13241;51.208;4.432;2022-07-24T12:00:12;3.85;;;1.08;;
25299;SDS011;13241;51.208;4.432;2022-07-24T12:02:44;4.78;;;1.15;;
25299;SDS011;13241;51.208;4.432;2022-07-24T12:05:32;2.45;;;1.00;;
25299;SDS011;13241;51.208;4.432;2022-07-24T12:08:03;2.53;;;0.90;;
25299;SDS011;13241;51.208;4.432;2022-07-24T12:10:40;2.55;;;1.30;;
25299;SDS011;13241;51.208;4.432;2022-07-24T12:13:08;10.02;;;1.38;;
25299;SDS011;13241;51.208;4.432;2022-07-24T12:15:36;1.10;;;1.00;;
25299;SDS011;13241;51.208;4.432;2022-07-24T12:18:05;3.05;;;1.08;;
25299;SDS011;13241;51.208;4.432;2022-07-24T12:20:37;1.77;;;1.00;;
25299;SDS011;13241;51.208;4.432;2022-07-24T12:23:06;2.38;;;1.70;;
25299;SDS011;13241;51.208;4.432;2022-07-24T12:25:38;3.50;;;1.20;;
25299;SDS011;13241;51.208;4.432;2022-07-24T12:28:12;1.60;;;1.13;;
25299;SDS011;13241;51.208;4.432;2022-07-24T12:30:42;2.17;;;1.00;;
25299;SDS011;13241;51.208;4.432;2022-07-24T12:38:37;2.35;;;1.05;;
25299;SDS011;13241;51.208;4.432;2022-07-24T12:41:14;2.70;;;1.00;;
25299;SDS011;13241;51.208;4.432;2022-07-24T12:46:36;2.17;;;1.25;;
25299;SDS011;13241;51.208;4.432;2022-07-24T12:54:29;2.50;;;1.58;;
25299;SDS011;13241;51.208;4.432;2022-07-24T12:56:59;2.85;;;1.40;;
25299;SDS011;13241;51.208;4.432;2022-07-24T12:59:46;2.17;;;1.35;;
25299;SDS011;13241;51.208;4.432;2022-07-24T13:02:21;4.53;;;1.27;;
25299;SDS011;13241;51.208;4.432;2022-07-24T13:04:57;1.63;;;1.10;;
25299;SDS011;13241;51.208;4.432;2022-07-24T13:07:25;1.33;;;1.20;;
25299;SDS011;13241;51.208;4.432;2022-07-24T13:09:52;2.97;;;1.27;;
25299;SDS011;13241;51.208;4.432;2022-07-24T13:12:20;1.55;;;1.38;;
25299;SDS011;13241;51.208;4.432;2022-07-24T13:14:49;2.42;;;1.40;;
25299;SDS011;13241;51.208;4.432;2022-07-24T13:17:17;1.35;;;1.10;;
25299;SDS011;13241;51.208;4.432;2022-07-24T13:19:46;3.65;;;1.20;;
25299;SDS011;13241;51.208;4.432;2022-07-24T13:22:14;4.43;;;1.30;;
25299;SDS011;13241;51.208;4.432;2022-07-24T13:24:42;3.38;;;1.42;;
25299;SDS011;13241;51.208;4.432;2022-07-24T13:27:10;1.17;;;1.02;;
25299;SDS011;13241;51.208;4.432;2022-07-24T13:29:40;2.40;;;1.17;;
25299;SDS011;13241;51.208;4.432;2022-07-24T13:32:07;2.65;;;1.38;;
25299;SDS011;13241;51.208;4.432;2022-07-24T13:34:34;1.75;;;1.17;;
25299;SDS011;13241;51.208;4.432;2022-07-24T13:37:02;1.40;;;1.15;;
25299;SDS011;13241;51.208;4.432;2022-07-24T13:39:33;2.58;;;1.13;;
25299;SDS011;13241;51.208;4.432;2022-07-24T13:42:02;5.68;;;1.60;;
25299;SDS011;13241;51.208;4.432;2022-07-24T13:44:29;2.22;;;1.42;;
25299;SDS011;13241;51.208;4.432;2022-07-24T13:46:56;2.40;;;1.48;;
25299;SDS011;13241;51.208;4.432;2022-07-24T13:49:23;8.80;;;1.83;;
25299;SDS011;13241;51.208;4.432;2022-07-24T13:51:51;3.70;;;1.42;;
25299;SDS011;13241;51.208;4.432;2022-07-24T13:54:17;2.08;;;1.20;;
25299;SDS011;13241;51.208;4.432;2022-07-24T13:56:44;2.13;;;1.45;;
25299;SDS011;13241;51.208;4.432;2022-07-24T13:59:11;1.95;;;1.55;;
25299;SDS011;13241;51.208;4.432;2022-07-24T14:01:38;1.65;;;1.40;;
25299;SDS011;13241;51.208;4.432;2022-07-24T14:04:05;3.78;;;1.70;;
25299;SDS011;13241;51.208;4.432;2022-07-24T14:06:53;3.53;;;2.13;;
25299;SDS011;13241;51.208;4.432;2022-07-24T14:09:21;1.92;;;1.30;;
25299;SDS011;13241;51.208;4.432;2022-07-24T14:11:48;4.13;;;1.77;;
25299;SDS011;13241;51.208;4.432;2022-07-24T14:14:16;2.42;;;1.42;;
25299;SDS011;13241;51.208;4.432;2022-07-24T14:16:43;2.38;;;1.42;;
25299;SDS011;13241;51.208;4.432;2022-07-24T14:19:10;2.58;;;1.20;;
25299;SDS011;13241;51.208;4.432;2022-07-24T14:21:37;2.40;;;1.20;;
25299;SDS011;13241;51.208;4.432;2022-07-24T14:24:05;2.50;;;1.23;;
25299;SDS011;13241;51.208;4.432;2022-07-24T14:26:41;5.97;;;1.40;;
25299;SDS011;13241;51.208;4.432;2022-07-24T14:29:11;1.83;;;1.30;;
25299;SDS011;13241;51.208;4.432;2022-07-24T14:31:38;1.60;;;1.23;;
25299;SDS011;13241;51.208;4.432;2022-07-24T14:34:06;3.25;;;1.30;;
25299;SDS011;13241;51.208;4.432;2022-07-24T14:36:33;5.63;;;1.25;;
25299;SDS011;13241;51.208;4.432;2022-07-24T14:39:00;3.05;;;1.42;;
25299;SDS011;13241;51.208;4.432;2022-07-24T14:41:27;2.47;;;1.15;;
25299;SDS011;13241;51.208;4.432;2022-07-24T14:43:54;1.90;;;1.58;;
25299;SDS011;13241;51.208;4.432;2022-07-24T14:46:21;3.35;;;1.33;;
25299;SDS011;13241;51.208;4.432;2022-07-24T14:48:48;5.72;;;1.45;;
25299;SDS011;13241;51.208;4.432;2022-07-24T14:51:15;2.72;;;1.60;;
25299;SDS011;13241;51.208;4.432;2022-07-24T14:53:42;1.90;;;1.20;;
25299;SDS011;13241;51.208;4.432;2022-07-24T14:56:08;2.58;;;1.80;;
25299;SDS011;13241;51.208;4.432;2022-07-24T14:58:36;1.48;;;1.25;;
25299;SDS011;13241;51.208;4.432;2022-07-24T15:01:03;1.50;;;1.23;;
25299;SDS011;13241;51.208;4.432;2022-07-24T15:03:30;2.97;;;1.55;;
25299;SDS011;13241;51.208;4.432;2022-07-24T15:05:57;10.60;;;1.85;;
25299;SDS011;13241;51.208;4.432;2022-07-24T15:08:24;4.07;;;1.33;;
25299;SDS011;13241;51.208;4.432;2022-07-24T15:10:51;1.13;;;1.02;;
25299;SDS011;13241;51.208;4.432;2022-07-24T15:13:17;1.77;;;1.20;;
25299;SDS011;13241;51.208;4.432;2022-07-24T15:15:44;3.42;;;1.50;;
25299;SDS011;13241;51.208;4.432;2022-07-24T15:18:11;2.63;;;1.35;;
25299;SDS011;13241;51.208;4.432;2022-07-24T15:20:38;1.95;;;1.50;;
25299;SDS011;13241;51.208;4.432;2022-07-24T15:23:05;2.50;;;1.60;;
25299;SDS011;13241;51.208;4.432;2022-07-24T15:25:32;1.92;;;1.38;;
25299;SDS011;13241;51.208;4.432;2022-07-24T15:28:00;6.32;;;1.67;;
25299;SDS011;13241;51.208;4.432;2022-07-24T15:30:27;1.48;;;1.38;;